createdAt,value
2023-01-17T00:01:35.491Z,95647.25
2023-01-17T00:04:54.095Z,95644.00
2023-01-17T00:08:15.614Z,95639.59
2023-01-17T00:11:21.694Z,95648.22
2023-01-17T00:14:31.039Z,95639.00
2023-01-17T00:17:36.956Z,95644.56
2023-01-17T00:20:55.963Z,95632.91
2023-01-17T00:24:14.340Z,95634.47
2023-01-17T00:27:18.011Z,95635.44
2023-01-17T00:30:24.502Z,95629.59
2023-01-17T00:33:29.189Z,95635.56
2023-01-17T00:36:32.149Z,95631.56
2023-01-17T00:39:35.865Z,95632.16
2023-01-17T00:42:38.806Z,95635.22
2023-01-17T00:46:02.647Z,95642.97
2023-01-17T00:49:22.040Z,95640.31
2023-01-17T00:52:40.922Z,95644.34
2023-01-17T00:55:59.033Z,95647.69
2023-01-17T00:59:17.974Z,95657.47
2023-01-17T01:02:40.255Z,95655.44
2023-01-17T01:05:59.205Z,95647.41
2023-01-17T01:09:17.370Z,95644.28
2023-01-17T01:12:36.351Z,95658.81
2023-01-17T01:15:54.583Z,95658.78
2023-01-17T01:19:16.224Z,95654.03
2023-01-17T01:22:34.620Z,95648.72
2023-01-17T01:25:53.605Z,95652.91
2023-01-17T01:29:11.820Z,95656.75
2023-01-17T01:32:30.730Z,95664.56
2023-01-17T01:35:42.059Z,95669.41
2023-01-17T01:38:50.449Z,95659.94
2023-01-17T01:41:56.377Z,95652.97
2023-01-17T01:45:02.880Z,95661.00
2023-01-17T01:48:26.410Z,95655.25
2023-01-17T01:51:44.625Z,95656.88
2023-01-17T01:55:00.620Z,95658.06
2023-01-17T01:58:16.449Z,95664.63
2023-01-17T02:01:22.829Z,95662.78
2023-01-17T02:04:32.262Z,95663.41
2023-01-17T02:07:53.930Z,95659.81
2023-01-17T02:11:00.489Z,95663.66
2023-01-17T02:14:06.483Z,95659.44
2023-01-17T02:17:33.114Z,95661.09
2023-01-17T02:21:09.094Z,95662.13
2023-01-17T02:25:05.674Z,95667.09
2023-01-17T02:28:45.398Z,95657.53
2023-01-17T02:32:05.936Z,95664.16
2023-01-17T02:35:25.771Z,95655.78
2023-01-17T02:38:47.324Z,95644.22
2023-01-17T02:42:03.306Z,95661.22
2023-01-17T02:45:11.993Z,95662.22
2023-01-17T02:48:31.252Z,95662.22
2023-01-17T02:52:06.252Z,95664.44
2023-01-17T02:55:34.267Z,95655.19
2023-01-17T02:59:17.593Z,95655.19
2023-01-17T03:02:43.585Z,95643.81
2023-01-17T03:06:03.793Z,95646.34
2023-01-17T03:09:12.049Z,95645.75
2023-01-17T03:12:18.964Z,95646.75
2023-01-17T03:15:25.239Z,95643.88
2023-01-17T03:18:32.918Z,95609.03
2023-01-17T03:21:41.435Z,95639.38
2023-01-17T03:24:48.245Z,95667.63
2023-01-17T03:27:54.307Z,95666.81
2023-01-17T03:31:00.942Z,95684.72
2023-01-17T03:34:07.088Z,95672.75
2023-01-17T03:37:16.528Z,95672.16
2023-01-17T03:40:22.659Z,95654.78
2023-01-17T03:43:29.238Z,95662.41
2023-01-17T03:46:36.551Z,95667.75
2023-01-17T03:49:43.603Z,95675.47
2023-01-17T03:52:52.014Z,95675.72
2023-01-17T03:55:58.898Z,95683.34
2023-01-17T03:59:05.232Z,95676.00
2023-01-17T04:02:12.010Z,95659.59
2023-01-17T04:05:18.185Z,95663.78
2023-01-17T04:08:28.503Z,95673.59
2023-01-17T04:11:34.427Z,95672.44
2023-01-17T04:14:41.336Z,95681.25
2023-01-17T04:17:47.708Z,95678.66
2023-01-17T04:20:56.527Z,95674.06
2023-01-17T04:24:04.976Z,95668.09
2023-01-17T04:27:14.417Z,95685.47
2023-01-17T04:30:20.464Z,95684.28
2023-01-17T04:33:27.138Z,95693.09
2023-01-17T04:36:33.115Z,95689.72
2023-01-17T04:39:42.842Z,95681.13
2023-01-17T04:42:49.008Z,95689.53
2023-01-17T04:45:58.992Z,95694.31
2023-01-17T04:49:04.968Z,95694.16
2023-01-17T04:52:11.900Z,95693.56
2023-01-17T04:55:20.742Z,95702.78
2023-01-17T04:58:28.069Z,95694.75
2023-01-17T05:01:34.599Z,95713.97
2023-01-17T05:04:42.011Z,95710.16
2023-01-17T05:07:47.890Z,95705.94
2023-01-17T05:10:57.395Z,95708.75
2023-01-17T05:14:03.324Z,95704.50
2023-01-17T05:17:11.386Z,95714.88
2023-01-17T05:20:17.431Z,95717.88
2023-01-17T05:23:25.375Z,95712.13
2023-01-17T05:26:33.819Z,95712.31
2023-01-17T05:29:40.756Z,95714.94
2023-01-17T05:32:52.327Z,95702.97
2023-01-17T05:35:59.128Z,95710.34
2023-01-17T05:39:05.013Z,95712.75
2023-01-17T05:42:14.297Z,95712.94
2023-01-17T05:45:22.759Z,95714.34
2023-01-17T05:48:29.342Z,95710.13
2023-01-17T05:51:37.905Z,95715.50
2023-01-17T05:54:44.475Z,95717.06
2023-01-17T05:57:53.177Z,95723.66
2023-01-17T06:00:59.904Z,95722.47
2023-01-17T06:04:05.801Z,95723.84
2023-01-17T06:07:12.398Z,95733.47
2023-01-17T06:10:21.210Z,95735.50
2023-01-17T06:13:30.395Z,95737.69
2023-01-17T06:16:36.395Z,95745.28
2023-01-17T06:19:43.001Z,95748.72
2023-01-17T06:22:49.180Z,95752.72
2023-01-17T06:25:56.424Z,95753.53
2023-01-17T06:29:05.021Z,95751.47
2023-01-17T06:32:13.421Z,95746.44
2023-01-17T06:35:19.827Z,95741.06
2023-01-17T06:38:27.449Z,95748.72
2023-01-17T06:41:33.655Z,95747.94
2023-01-17T06:44:43.194Z,95746.53
2023-01-17T06:47:49.376Z,95747.56
2023-01-17T06:50:56.162Z,95747.75
2023-01-17T06:54:02.230Z,95744.13
2023-01-17T06:57:08.722Z,95744.09
2023-01-17T07:00:19.371Z,95742.06
2023-01-17T07:03:29.816Z,95726.25
2023-01-17T07:06:35.715Z,95753.28
2023-01-17T07:09:55.271Z,95755.25
2023-01-17T07:13:04.309Z,95733.81
2023-01-17T07:16:13.879Z,95739.06
2023-01-17T07:19:19.851Z,95719.25
2023-01-17T07:22:26.919Z,95733.47
2023-01-17T07:29:31.334Z,95751.41
2023-01-17T07:36:32.815Z,95698.63
2023-01-17T07:43:29.790Z,95704.28
2023-01-17T07:46:36.683Z,95700.25
2023-01-17T07:49:43.178Z,95775.38
2023-01-17T07:52:56.579Z,95776.19
2023-01-17T07:56:07.638Z,95778.34
2023-01-17T07:59:14.791Z,95776.38
2023-01-17T08:02:25.222Z,95711.81
2023-01-17T08:09:37.358Z,95789.75
2023-01-17T08:12:44.647Z,95775.09
2023-01-17T08:15:52.322Z,95775.34
2023-01-17T08:19:00.327Z,95772.97
2023-01-17T08:22:08.732Z,95781.63
2023-01-17T08:25:18.823Z,95763.63
2023-01-17T08:28:31.211Z,95811.09
2023-01-17T08:31:39.787Z,95796.47
2023-01-17T08:34:46.810Z,95817.94
2023-01-17T08:38:00.115Z,95749.00
2023-01-17T08:41:09.204Z,95769.88
2023-01-17T08:44:20.461Z,95817.00
2023-01-17T08:47:28.190Z,95774.66
2023-01-17T08:50:34.959Z,95786.94
2023-01-17T08:53:42.806Z,95785.16
2023-01-17T08:56:52.998Z,95751.72
2023-01-17T08:59:59.306Z,95770.41
2023-01-17T09:03:13.269Z,95778.28
2023-01-17T09:06:20.742Z,95804.16
2023-01-17T09:09:27.537Z,95785.75
2023-01-17T09:12:39.093Z,95810.78
2023-01-17T09:15:45.724Z,95823.63
2023-01-17T09:18:51.612Z,95802.81
2023-01-17T09:21:58.256Z,95819.41
2023-01-17T09:25:04.172Z,95820.59
2023-01-17T09:28:13.714Z,95823.03
2023-01-17T09:31:21.518Z,95833.28
2023-01-17T09:34:28.110Z,95836.28
2023-01-17T09:37:33.919Z,95848.31
2023-01-17T09:40:47.332Z,95821.25
2023-01-17T09:44:05.938Z,95843.50
2023-01-17T09:47:31.443Z,95855.13
2023-01-17T09:50:49.506Z,95853.53
2023-01-17T09:53:58.393Z,95871.34
2023-01-17T09:57:18.524Z,95863.34
2023-01-17T10:00:55.494Z,95857.56
2023-01-17T10:04:29.280Z,95852.16
2023-01-17T10:07:57.516Z,95862.34
2023-01-17T10:11:34.060Z,95849.63
2023-01-17T10:15:03.162Z,95853.59
2023-01-17T10:18:57.211Z,95851.56
2023-01-17T10:22:36.441Z,95841.16
2023-01-17T10:25:50.722Z,95852.16
2023-01-17T10:29:05.529Z,95853.91
2023-01-17T10:32:17.612Z,95850.88
2023-01-17T10:35:36.274Z,95848.84
2023-01-17T10:38:44.223Z,95840.13
2023-01-17T10:41:58.970Z,95846.00
2023-01-17T10:45:18.653Z,95850.38
2023-01-17T10:48:43.056Z,95852.06
2023-01-17T10:52:08.649Z,95859.38
2023-01-17T10:55:40.278Z,95855.41
2023-01-17T10:58:48.304Z,95857.00
2023-01-17T11:01:55.128Z,95862.00
2023-01-17T11:05:17.942Z,95860.13
2023-01-17T11:08:27.112Z,95865.81
2023-01-17T11:11:38.225Z,95857.97
2023-01-17T11:15:02.800Z,95848.00
2023-01-17T11:18:19.119Z,95853.13
2023-01-17T11:21:28.521Z,95855.00
2023-01-17T11:24:45.426Z,95852.34
2023-01-17T11:28:04.398Z,95849.91
2023-01-17T11:31:29.839Z,95844.59
2023-01-17T11:34:36.679Z,95841.94
2023-01-17T11:37:49.956Z,95835.44
2023-01-17T11:41:19.262Z,95845.22
2023-01-17T11:44:29.703Z,95838.63
2023-01-17T11:47:36.385Z,95830.66
2023-01-17T11:50:47.371Z,95821.09
2023-01-17T11:53:55.972Z,95825.28
2023-01-17T11:57:05.815Z,95826.09
2023-01-17T12:00:27.866Z,95818.44
2023-01-17T12:04:02.656Z,95812.63
2023-01-17T12:07:27.580Z,95810.84
2023-01-17T12:10:49.479Z,95824.88
2023-01-17T12:14:19.526Z,95804.50
2023-01-17T12:17:57.441Z,95804.22
2023-01-17T12:21:22.996Z,95808.75
2023-01-17T12:25:04.182Z,95803.31
2023-01-17T12:28:52.358Z,95799.03
2023-01-17T12:32:30.505Z,95810.50
2023-01-17T12:35:48.331Z,95812.03
2023-01-17T12:38:56.723Z,95817.63
2023-01-17T12:42:15.986Z,95836.22
2023-01-17T12:45:32.687Z,95850.84
2023-01-17T12:48:42.305Z,95832.69
2023-01-17T12:51:55.987Z,95845.16
2023-01-17T12:55:13.833Z,95833.16
2023-01-17T12:58:35.047Z,95836.03
2023-01-17T13:01:43.395Z,95847.03
2023-01-17T13:05:03.179Z,95840.00
2023-01-17T13:08:28.198Z,95835.06
2023-01-17T13:11:46.728Z,95834.47
2023-01-17T13:14:53.871Z,95829.66
2023-01-17T13:18:13.491Z,95833.59
2023-01-17T13:21:35.460Z,95832.28
2023-01-17T13:24:55.560Z,95820.38
2023-01-17T13:28:33.350Z,95832.28
2023-01-17T13:31:51.839Z,95836.25
2023-01-17T13:35:22.211Z,95837.50
2023-01-17T13:39:16.119Z,95844.19
2023-01-17T13:42:43.690Z,95846.41
2023-01-17T13:45:57.793Z,95864.56
2023-01-17T13:49:36.349Z,95863.81
2023-01-17T13:52:42.329Z,95868.78
2023-01-17T13:55:55.811Z,95869.00
2023-01-17T13:59:36.081Z,95878.41
2023-01-17T14:02:42.828Z,95887.41
2023-01-17T14:06:00.137Z,95895.25
2023-01-17T14:09:19.888Z,95900.03
2023-01-17T14:12:36.231Z,95909.09
2023-01-17T14:15:53.901Z,95916.56
2023-01-17T14:19:00.293Z,95921.50
2023-01-17T14:22:28.496Z,95932.03
2023-01-17T14:25:44.014Z,95930.00
2023-01-17T14:28:55.430Z,95943.28
2023-01-17T14:32:11.829Z,95941.75
2023-01-17T14:35:26.610Z,95945.81
2023-01-17T14:38:43.928Z,95941.63
2023-01-17T14:41:50.736Z,95948.09
2023-01-17T14:45:07.181Z,95949.34
2023-01-17T14:48:21.739Z,95953.75
2023-01-17T14:51:28.400Z,95956.38
2023-01-17T14:54:37.044Z,95957.22
2023-01-17T14:57:45.980Z,95955.41
2023-01-17T15:01:01.839Z,95970.88
2023-01-17T15:04:07.940Z,95968.28
2023-01-17T15:07:20.586Z,95964.31
2023-01-17T15:10:33.286Z,95961.31
2023-01-17T15:13:45.977Z,95976.53
2023-01-17T15:16:54.496Z,95980.72
2023-01-17T15:20:11.419Z,95979.31
2023-01-17T15:23:23.235Z,95974.34
2023-01-17T15:26:36.113Z,95979.09
2023-01-17T15:29:44.803Z,95978.53
2023-01-17T15:32:55.055Z,95972.34
2023-01-17T15:36:07.176Z,95969.72
2023-01-17T15:39:27.102Z,95961.91
2023-01-17T15:42:37.164Z,95958.13
2023-01-17T15:45:44.079Z,95948.13
2023-01-17T15:48:53.432Z,95959.13
2023-01-17T15:52:18.442Z,95953.72
2023-01-17T15:55:29.004Z,95952.50
2023-01-17T15:58:35.567Z,95949.03
2023-01-17T16:01:41.589Z,95943.25
2023-01-17T16:04:50.860Z,95946.22
2023-01-17T16:08:00.366Z,95951.84
2023-01-17T16:11:09.589Z,95947.66
2023-01-17T16:14:15.336Z,95928.25
2023-01-17T16:17:22.404Z,95924.66
2023-01-17T16:20:39.865Z,95936.47
2023-01-17T16:23:46.465Z,95934.88
2023-01-17T16:26:52.287Z,95929.66
2023-01-17T16:29:59.462Z,95935.25
2023-01-17T16:33:07.599Z,95929.00
2023-01-17T16:36:20.951Z,95925.59
2023-01-17T16:39:27.481Z,95929.94
2023-01-17T16:42:34.374Z,95915.72
2023-01-17T16:45:45.208Z,95923.94
2023-01-17T16:48:51.991Z,95907.72
2023-01-17T16:52:00.418Z,95908.16
2023-01-17T16:55:08.291Z,95904.78
2023-01-17T16:58:15.429Z,95894.59
2023-01-17T17:05:14.194Z,95897.97
2023-01-17T17:08:23.359Z,95897.38
2023-01-17T17:15:21.731Z,95887.53
2023-01-17T17:18:28.456Z,95892.91
2023-01-17T17:21:39.753Z,95878.28
2023-01-17T17:28:55.502Z,95858.00
2023-01-17T17:32:02.040Z,95895.69
2023-01-17T17:35:20.405Z,95885.66
2023-01-17T17:46:14.009Z,95851.66
2023-01-17T17:49:23.096Z,95885.13
2023-01-17T17:52:32.481Z,95869.28
2023-01-17T17:55:51.987Z,95905.97
2023-01-17T17:58:59.578Z,95883.31
2023-01-17T18:02:11.256Z,95911.41
2023-01-17T18:29:55.938Z,95925.47
2023-01-17T18:33:02.560Z,95932.03
2023-01-17T18:36:10.349Z,95933.06
2023-01-17T18:39:20.551Z,95935.50
2023-01-17T18:42:27.628Z,95932.88
2023-01-17T18:45:36.993Z,95938.28
2023-01-17T18:48:43.881Z,95933.66
2023-01-17T18:51:51.986Z,95938.09
2023-01-17T18:54:58.126Z,95939.91
2023-01-17T18:58:06.009Z,95935.34
2023-01-17T19:01:19.993Z,95940.78
2023-01-17T19:04:28.578Z,95935.38
2023-01-17T19:07:34.527Z,95922.97
2023-01-17T19:10:41.258Z,95931.63
2023-01-17T19:13:50.451Z,95921.59
2023-01-17T19:17:01.518Z,95925.22
2023-01-17T19:20:09.154Z,95918.19
2023-01-17T19:23:17.153Z,95909.97
2023-01-17T19:26:25.223Z,95902.53
2023-01-17T19:29:31.977Z,95897.75
2023-01-17T19:32:40.414Z,95899.50
2023-01-17T19:35:47.278Z,95890.31
2023-01-17T19:39:05.585Z,95886.31
2023-01-17T19:42:15.691Z,95885.53
2023-01-17T19:45:21.894Z,95873.91
2023-01-17T19:48:31.847Z,95878.72
2023-01-17T19:51:39.450Z,95877.13
2023-01-17T19:54:46.088Z,95876.94
2023-01-17T19:57:52.084Z,95870.13
2023-01-17T20:01:09.968Z,95870.34
2023-01-17T20:04:19.441Z,95862.53
2023-01-17T20:07:26.415Z,95850.72
2023-01-17T20:10:32.688Z,95863.53
2023-01-17T20:13:40.347Z,95862.94
2023-01-17T20:16:48.844Z,95861.31
2023-01-17T20:19:59.361Z,95868.94
2023-01-17T20:23:06.497Z,95864.91
2023-01-17T20:26:17.733Z,95871.50
2023-01-17T20:29:26.005Z,95863.50
2023-01-17T20:32:32.703Z,95860.31
2023-01-17T20:35:41.124Z,95853.28
2023-01-17T20:38:50.001Z,95841.72
2023-01-17T20:41:56.141Z,95844.13
2023-01-17T20:45:03.275Z,95855.94
2023-01-17T20:48:09.606Z,95855.53
2023-01-17T20:51:20.465Z,95840.50
2023-01-17T20:54:26.807Z,95858.50
2023-01-17T20:57:34.561Z,95863.09
2023-01-17T21:00:40.535Z,95862.28
2023-01-17T21:03:48.046Z,95858.69
2023-01-17T21:06:57.650Z,95855.69
2023-01-17T21:10:04.283Z,95852.72
2023-01-17T21:13:10.201Z,95849.94
2023-01-17T21:16:20.493Z,95849.75
2023-01-17T21:19:26.457Z,95847.53
2023-01-17T21:22:35.747Z,95838.31
2023-01-17T21:25:43.460Z,95828.94
2023-01-17T21:28:52.585Z,95827.69
2023-01-17T21:31:58.903Z,95835.91
2023-01-17T21:35:05.558Z,95834.91
2023-01-17T21:38:14.038Z,95840.13
2023-01-17T21:41:21.393Z,95854.13
2023-01-17T21:44:27.580Z,95848.91
2023-01-17T21:47:35.599Z,95842.13
2023-01-17T21:50:42.143Z,95850.53
2023-01-17T21:53:51.799Z,95841.72
2023-01-17T21:57:21.723Z,95842.91
2023-01-17T22:00:28.305Z,95844.91
2023-01-17T22:03:34.244Z,95839.75
2023-01-17T22:06:41.254Z,95839.31
2023-01-17T22:09:49.638Z,95839.75
2023-01-17T22:12:56.598Z,95827.91
2023-01-17T22:16:05.499Z,95838.13
2023-01-17T22:19:12.283Z,95826.69
2023-01-17T22:22:18.155Z,95817.72
2023-01-17T22:25:27.475Z,95822.72
2023-01-17T22:28:34.656Z,95805.88
2023-01-17T22:31:41.438Z,95795.06
2023-01-17T22:34:47.294Z,95791.28
2023-01-17T22:37:56.718Z,95776.84
2023-01-17T22:41:13.218Z,95773.03
2023-01-17T22:44:19.756Z,95771.66
2023-01-17T22:47:25.674Z,95777.03
2023-01-17T22:50:32.254Z,95770.22
2023-01-17T22:53:42.347Z,95765.84
2023-01-17T22:56:51.671Z,95767.22
2023-01-17T22:59:58.231Z,95762.59
2023-01-17T23:03:06.467Z,95762.81
2023-01-17T23:06:16.876Z,95747.78
2023-01-17T23:09:24.322Z,95746.38
2023-01-17T23:12:32.788Z,95748.41
2023-01-17T23:15:53.527Z,95744.03
2023-01-17T23:19:11.724Z,95741.19
2023-01-17T23:22:24.300Z,95733.75
2023-01-17T23:25:30.082Z,95731.91
2023-01-17T23:28:36.717Z,95731.09
2023-01-17T23:31:43.755Z,95720.25
2023-01-17T23:34:50.683Z,95719.81
2023-01-17T23:38:08.982Z,95706.41
2023-01-17T23:41:27.977Z,95707.16
2023-01-17T23:44:36.404Z,95705.72
2023-01-17T23:47:42.994Z,95691.06
2023-01-17T23:50:51.378Z,95694.84
2023-01-17T23:54:05.496Z,95693.22
2023-01-17T23:57:11.606Z,95683.00
